Aérodrome :
LOGIN :

S'inscrire | Disclaimer

   EN    FR    IT 

 










Légende :    VFR   VFR Marginal   IFR   IFR Intensif   IFR Très Intensif
Visi : 
Plafond : 
>= 8 km
>= 3000ft
5 à 8 km
1000 à 3000 ft
1500m à 5 km
500 à 1000 ft
800 à 1500m
200 à 500 ft
< 800m
< 200 ft
Symboles :   Orages  Brouillard  Fortes neiges  Fortes précipitations  Vent > 20 kt
SIGMETs :   Divers  Orages  Givrage  Turbulence  Onde Orograph.  Cendres Volcan.







- Altitude de l'aérodrome : 291 ft
- Code IATA : ORY
- Voir les cartes d'approche


LFPO - Paris-Orly

DERNIER METAR :
  • 221000Z 19007KT 0900 R02/1200D R26/1100D R08/1100D R24/0900D R06/0750N -SN FG BKN004 M01/M01 Q1007 NOSIG

METARs EXPIRÉS :
  • 220930Z 19008KT 1200 R02/1400U R26/1500U R08/1400U R24/1500U R06/1100U -SN BR BKN005 M01/M02 Q1008 TEMPO 1200 SN BKN004
  • 220900Z 19008KT 1400 R02/1900N R26/1900N R08/1900D R24/1800U R06/P2000 -SN BR BKN007 M01/M02 Q1008 TEMPO 1200 SN BKN004
  • 220830Z 19009KT 3500 -SN BR BKN008 M01/M02 Q1008 TEMPO 1200 SN BKN004
  • 220800Z 19009KT 3500 -SN BR BKN008 M01/M02 Q1009 TEMPO 1200 SN BKN004
  • 220730Z 18008KT 150V210 3500 -SN BR BKN008 M01/M03 Q1009 TEMPO 1200 SN BKN004

TAF AMD TAF LFPO
Valide du 22 à 09h jusqu'au 23 à 12h UTC


220941Z 2209/2312 20010KT 6000 BKN008
TEMPO 2209/2213 18010G20KT 0800 SN BKN004
PROB30
TEMPO 2215/2220 4000 -SHRASN
TEMPO 2220/2312 2000 SHSN BKN004 SCT020CB
BECMG 2310/2312 32010KT
ATIS : +33 1 49 75 65 80
Pas de NOTAMs connus pour ce terrain.



MET'MAP, la Météo Aéronautique d'un coup d'oeil ! - Copyright ORBIFLY Décembre 2007 - Disclaimer

ORBIFLY MET'MAP TEAM :

Programmation & Développement : Alexandra Zaïnal
Conception & Développement : Baudouin d'Aumeries
Co-Programmation & Développement : Marc-Olivier Méhu
Soutien technique & logistique : Manuel Goepfert

Contact : metmap@orbifly.com




SOURCES & CREDITS :

   NOAA